Time;durP1;ratioP1;P1;durP2;ratioP2;P2;SDS_P1;SDS_P2;PMS_P1;PMS_P2;Temp;Humidity;BMP_temperature;BMP_pressure;BME280_temperature;BME280_humidity;BME280_pressure;Samples;Min_cycle;Max_cycle;Signal;HPM_P1;HPM_P2
2021/10/31 00:00:36;;;;;;;0.10;0.10;;;;;;;;;;5096586;28;20153;-90
2021/10/31 00:03:01;;;;;;;0.30;0.30;;;;;;;;;;5096733;28;20094;-90
2021/10/31 00:05:26;;;;;;;0.10;0.10;;;;;;;;;;5096360;28;20020;-90
2021/10/31 00:07:52;;;;;;;0.10;0.10;;;;;;;;;;5094478;28;20119;-90
2021/10/31 00:10:19;;;;;;;0.20;0.20;;;;;;;;;;5096586;28;20075;-90
2021/10/31 00:12:44;;;;;;;0.32;0.32;;;;;;;;;;5096233;28;20406;-90
2021/10/31 00:15:10;;;;;;;0.13;0.13;;;;;;;;;;5096266;28;20031;-91
2021/10/31 00:17:35;;;;;;;0.50;0.50;;;;;;;;;;5095061;28;20111;-91
2021/10/31 00:20:00;;;;;;;0.30;0.30;;;;;;;;;;5096215;28;20048;-90
2021/10/31 00:22:26;;;;;;;0.10;0.10;;;;;;;;;;5095591;28;20047;-90
2021/10/31 00:24:51;;;;;;;0.98;0.75;;;;;;;;;;5095520;28;20108;-90
2021/10/31 00:27:16;;;;;;;0.47;0.47;;;;;;;;;;5093864;28;20036;-90
2021/10/31 00:29:42;;;;;;;0.10;0.10;;;;;;;;;;5095841;28;20039;-90
2021/10/31 00:32:07;;;;;;;0.10;0.10;;;;;;;;;;5095813;28;20031;-90
2021/10/31 00:34:32;;;;;;;1.13;1.02;;;;;;;;;;5095889;28;20472;-90
2021/10/31 00:36:58;;;;;;;0.10;0.10;;;;;;;;;;5095500;28;20489;-90
2021/10/31 00:39:23;;;;;;;1.38;1.27;;;;;;;;;;5095237;28;20476;-90
2021/10/31 00:41:48;;;;;;;0.52;0.52;;;;;;;;;;5095880;28;20013;-91
2021/10/31 00:44:13;;;;;;;0.10;0.10;;;;;;;;;;5095808;28;20430;-90
2021/10/31 00:46:39;;;;;;;0.40;0.40;;;;;;;;;;5095830;28;20032;-90
2021/10/31 00:49:04;;;;;;;0.10;0.10;;;;;;;;;;5095779;28;20016;-89
2021/10/31 00:51:29;;;;;;;0.10;0.10;;;;;;;;;;5095881;28;20028;-90
2021/10/31 00:53:56;;;;;;;0.47;0.43;;;;;;;;;;5095641;28;20111;-90
2021/10/31 00:56:22;;;;;;;1.33;1.25;;;;;;;;;;5094267;28;20050;-92
2021/10/31 00:58:48;;;;;;;0.25;0.25;;;;;;;;;;5094931;28;20127;-92
2021/10/31 01:01:13;;;;;;;0.10;0.10;;;;;;;;;;5095500;28;20078;-92
2021/10/31 01:03:38;;;;;;;1.20;1.10;;;;;;;;;;5091589;28;20044;-91
2021/10/31 01:06:19;;;;;;;0.13;0.13;;;;;;;;;;5094268;28;20077;-91
2021/10/31 01:09:07;;;;;;;0.10;0.10;;;;;;;;;;5095302;28;20048;-91
2021/10/31 01:11:51;;;;;;;0.20;0.20;;;;;;;;;;5072739;28;20036;-92
2021/10/31 01:14:40;;;;;;;1.17;0.95;;;;;;;;;;5094499;28;20047;-92
2021/10/31 01:17:25;;;;;;;0.20;0.20;;;;;;;;;;5094452;28;20071;-92
2021/10/31 01:20:06;;;;;;;0.13;0.13;;;;;;;;;;5095033;28;20463;-92
2021/10/31 01:22:46;;;;;;;0.10;0.10;;;;;;;;;;5095531;28;20032;-91
2021/10/31 01:25:17;;;;;;;0.20;0.20;;;;;;;;;;5091649;28;20034;-92
2021/10/31 01:27:48;;;;;;;0.10;0.10;;;;;;;;;;5095127;28;20028;-91
2021/10/31 01:30:32;;;;;;;1.38;1.15;;;;;;;;;;5090221;28;20094;-92
2021/10/31 01:33:00;;;;;;;4.35;0.90;;;;;;;;;;5076806;28;20056;-92
2021/10/31 01:35:32;;;;;;;0.75;0.75;;;;;;;;;;5074088;28;20044;-92
2021/10/31 01:37:57;;;;;;;0.88;0.88;;;;;;;;;;5074657;28;20036;-92
2021/10/31 01:40:39;;;;;;;0.20;0.20;;;;;;;;;;5073411;28;20016;-91
2021/10/31 01:43:09;;;;;;;0.80;0.80;;;;;;;;;;5071204;28;20029;-92
2021/10/31 01:45:35;;;;;;;1.08;0.57;;;;;;;;;;5074014;28;20032;-92
2021/10/31 01:48:03;;;;;;;0.68;0.68;;;;;;;;;;5074606;28;20009;-92
2021/10/31 01:50:32;;;;;;;0.80;0.80;;;;;;;;;;5071108;28;20056;-92
2021/10/31 01:53:02;;;;;;;1.88;1.58;;;;;;;;;;5073936;28;20041;-93
2021/10/31 01:55:31;;;;;;;0.30;0.30;;;;;;;;;;5074365;28;20039;-91
2021/10/31 01:57:58;;;;;;;0.22;0.22;;;;;;;;;;5071160;28;20456;-91
2021/10/31 02:00:24;;;;;;;0.20;0.20;;;;;;;;;;5074521;28;20032;-92
2021/10/31 02:02:50;;;;;;;0.20;0.20;;;;;;;;;;5074745;28;20517;-92
2021/10/31 02:05:17;;;;;;;0.10;0.10;;;;;;;;;;5074507;28;20024;-92
2021/10/31 02:07:45;;;;;;;0.20;0.20;;;;;;;;;;5074076;28;20037;-92
2021/10/31 02:10:12;;;;;;;0.55;0.55;;;;;;;;;;5073892;28;20139;-92
2021/10/31 02:12:41;;;;;;;0.43;0.43;;;;;;;;;;5074450;28;20029;-93
2021/10/31 02:15:07;;;;;;;0.52;0.52;;;;;;;;;;5073772;28;20047;-92
2021/10/31 02:17:33;;;;;;;0.47;0.47;;;;;;;;;;5074071;28;20534;-91
2021/10/31 02:19:59;;;;;;;0.20;0.20;;;;;;;;;;5073827;28;20029;-93
2021/10/31 02:22:25;;;;;;;0.20;0.20;;;;;;;;;;5073568;28;20033;-92
2021/10/31 02:24:51;;;;;;;0.38;0.38;;;;;;;;;;5074249;28;20066;-91
2021/10/31 02:27:17;;;;;;;0.73;0.73;;;;;;;;;;5073683;28;20032;-91
2021/10/31 02:29:44;;;;;;;0.10;0.10;;;;;;;;;;5071958;28;20048;-92
2021/10/31 02:32:09;;;;;;;0.00;0.00;;;;;;;;;;5074155;28;20480;-92
2021/10/31 02:34:34;;;;;;;0.10;0.10;;;;;;;;;;5073739;28;20112;-92
2021/10/31 02:37:00;;;;;;;0.10;0.10;;;;;;;;;;5073662;28;20036;-92
2021/10/31 02:39:25;;;;;;;0.08;0.08;;;;;;;;;;5074026;28;20095;-91
2021/10/31 02:41:51;;;;;;;0.10;0.10;;;;;;;;;;5073293;28;20028;-92
2021/10/31 02:44:16;;;;;;;0.00;0.00;;;;;;;;;;5074061;28;20060;-91
2021/10/31 02:46:41;;;;;;;1.52;1.42;;;;;;;;;;5074015;28;20024;-92
2021/10/31 02:49:07;;;;;;;0.10;0.10;;;;;;;;;;5073951;28;20422;-92
2021/10/31 02:51:42;;;;;;;0.00;0.00;;;;;;;;;;5075649;28;20035;-93
2021/10/31 02:54:16;;;;;;;0.30;0.30;;;;;;;;;;5077150;28;20033;-92
2021/10/31 02:56:45;;;;;;;0.10;0.10;;;;;;;;;;5077638;28;20044;-92
2021/10/31 02:59:17;;;;;;;0.10;0.10;;;;;;;;;;5076854;28;20493;-93
2021/10/31 03:01:44;;;;;;;0.10;0.10;;;;;;;;;;5075147;28;20040;-92
2021/10/31 03:04:10;;;;;;;0.20;0.20;;;;;;;;;;5075226;28;20036;-91
2021/10/31 03:06:36;;;;;;;0.10;0.10;;;;;;;;;;5076417;28;20044;-92
2021/10/31 03:09:01;;;;;;;0.03;0.03;;;;;;;;;;5076800;28;20032;-92
2021/10/31 03:11:27;;;;;;;0.00;0.00;;;;;;;;;;5072263;28;20023;-92
2021/10/31 03:13:52;;;;;;;0.10;0.10;;;;;;;;;;5077569;28;20032;-91
2021/10/31 03:16:18;;;;;;;0.30;0.30;;;;;;;;;;5077157;28;20039;-90
2021/10/31 03:18:43;;;;;;;0.10;0.10;;;;;;;;;;5077139;28;20036;-91
2021/10/31 03:21:08;;;;;;;0.00;0.00;;;;;;;;;;5077372;28;20069;-91
2021/10/31 03:23:34;;;;;;;0.98;0.57;;;;;;;;;;5075917;28;20508;-91
2021/10/31 03:25:59;;;;;;;6.43;0.73;;;;;;;;;;5076492;28;20025;-91
2021/10/31 03:28:24;;;;;;;0.10;0.10;;;;;;;;;;5073533;28;20089;-92
2021/10/31 03:30:49;;;;;;;0.13;0.13;;;;;;;;;;5076573;28;20481;-92
2021/10/31 03:33:15;;;;;;;1.25;1.10;;;;;;;;;;5076921;28;20062;-91
2021/10/31 03:35:41;;;;;;;0.10;0.10;;;;;;;;;;5076546;28;20103;-92
2021/10/31 03:38:06;;;;;;;0.00;0.00;;;;;;;;;;5075919;28;20044;-92
2021/10/31 03:40:32;;;;;;;0.00;0.00;;;;;;;;;;5076750;28;20600;-92
2021/10/31 03:42:57;;;;;;;0.40;0.38;;;;;;;;;;5076843;28;20020;-92
2021/10/31 03:45:22;;;;;;;1.25;0.95;;;;;;;;;;5076211;28;20043;-91
2021/10/31 03:47:48;;;;;;;0.10;0.10;;;;;;;;;;5073200;28;20042;-92
2021/10/31 03:50:18;;;;;;;0.00;0.00;;;;;;;;;;5076815;28;20039;-92
2021/10/31 03:52:44;;;;;;;0.00;0.00;;;;;;;;;;5075724;28;20068;-92
2021/10/31 03:55:09;;;;;;;9.32;0.75;;;;;;;;;;5054514;28;20033;-91
2021/10/31 03:57:36;;;;;;;0.00;0.00;;;;;;;;;;5051548;28;20266;-91
2021/10/31 04:00:02;;;;;;;0.30;0.30;;;;;;;;;;5051350;28;20041;-91
2021/10/31 04:02:28;;;;;;;0.10;0.10;;;;;;;;;;5053521;28;20025;-91
2021/10/31 04:04:53;;;;;;;0.00;0.00;;;;;;;;;;5054336;28;20095;-91
2021/10/31 04:07:18;;;;;;;0.00;0.00;;;;;;;;;;5053977;28;20499;-91
2021/10/31 04:09:43;;;;;;;0.00;0.00;;;;;;;;;;5053998;28;20044;-91
2021/10/31 04:12:09;;;;;;;0.00;0.00;;;;;;;;;;5054036;28;20024;-91
2021/10/31 04:14:34;;;;;;;0.63;0.38;;;;;;;;;;5049509;28;20049;-91
2021/10/31 04:16:59;;;;;;;0.20;0.20;;;;;;;;;;5053797;28;20074;-89
2021/10/31 04:19:25;;;;;;;0.00;0.00;;;;;;;;;;5053303;28;20028;-90
2021/10/31 04:21:50;;;;;;;0.00;0.00;;;;;;;;;;5050944;28;20045;-92
2021/10/31 04:24:17;;;;;;;0.00;0.00;;;;;;;;;;5047785;28;20020;-92
2021/10/31 04:26:42;;;;;;;0.00;0.00;;;;;;;;;;5067450;28;20032;-91
2021/10/31 04:29:07;;;;;;;0.00;0.00;;;;;;;;;;5075860;28;20055;-91
2021/10/31 04:31:33;;;;;;;0.00;0.00;;;;;;;;;;5075917;28;20100;-92
2021/10/31 04:33:58;;;;;;;0.03;0.03;;;;;;;;;;5074771;28;20365;-91
2021/10/31 04:36:24;;;;;;;0.10;0.10;;;;;;;;;;5075622;28;20052;-92
2021/10/31 04:38:54;;;;;;;0.10;0.10;;;;;;;;;;5076130;28;20029;-92
2021/10/31 04:41:19;;;;;;;0.00;0.00;;;;;;;;;;5095587;28;20055;-92
2021/10/31 04:43:45;;;;;;;0.57;0.55;;;;;;;;;;5095238;28;20039;-92
2021/10/31 04:46:10;;;;;;;0.05;0.05;;;;;;;;;;5095729;28;20069;-92
2021/10/31 04:48:35;;;;;;;0.30;0.30;;;;;;;;;;5093491;28;20039;-92
2021/10/31 04:51:01;;;;;;;2.55;0.55;;;;;;;;;;5095892;28;20426;-92
2021/10/31 04:53:26;;;;;;;18.63;0.98;;;;;;;;;;5095503;28;20471;-93
2021/10/31 04:55:51;;;;;;;0.00;0.00;;;;;;;;;;5095701;28;20028;-92
2021/10/31 04:58:16;;;;;;;0.00;0.00;;;;;;;;;;5095529;28;20038;-92
2021/10/31 05:00:42;;;;;;;0.00;0.00;;;;;;;;;;5095668;28;20066;-93
2021/10/31 05:03:07;;;;;;;1.35;1.10;;;;;;;;;;5096018;28;20027;-93
2021/10/31 05:05:33;;;;;;;0.05;0.05;;;;;;;;;;5095764;28;20050;-92
2021/10/31 05:08:01;;;;;;;0.10;0.10;;;;;;;;;;5095147;28;20020;-92
2021/10/31 05:10:27;;;;;;;0.10;0.10;;;;;;;;;;5095366;28;20046;-92
2021/10/31 05:12:53;;;;;;;0.10;0.10;;;;;;;;;;5095472;28;20032;-92
2021/10/31 05:15:18;;;;;;;0.00;0.00;;;;;;;;;;5094399;28;20047;-93
2021/10/31 05:17:44;;;;;;;0.10;0.10;;;;;;;;;;5095145;28;20035;-92
2021/10/31 05:20:09;;;;;;;0.10;0.10;;;;;;;;;;5095167;28;20043;-91
2021/10/31 05:22:35;;;;;;;0.08;0.08;;;;;;;;;;5095231;28;20098;-92
2021/10/31 05:25:01;;;;;;;0.98;0.63;;;;;;;;;;5095175;28;20468;-90
2021/10/31 05:27:26;;;;;;;0.00;0.00;;;;;;;;;;5095030;28;20024;-92
2021/10/31 05:29:51;;;;;;;0.00;0.00;;;;;;;;;;5095058;28;20017;-92
2021/10/31 05:32:16;;;;;;;0.00;0.00;;;;;;;;;;5090803;28;20035;-93
2021/10/31 05:34:42;;;;;;;0.10;0.10;;;;;;;;;;5094799;28;20127;-92
2021/10/31 05:37:07;;;;;;;0.08;0.08;;;;;;;;;;5094355;28;20035;-92
2021/10/31 05:39:32;;;;;;;0.00;0.00;;;;;;;;;;5092858;28;20115;-92
2021/10/31 05:41:58;;;;;;;0.20;0.20;;;;;;;;;;5095157;28;20027;-94
2021/10/31 05:44:23;;;;;;;0.20;0.20;;;;;;;;;;5095125;28;20016;-93
2021/10/31 05:46:48;;;;;;;0.00;0.00;;;;;;;;;;5095154;28;20031;-93
2021/10/31 05:49:14;;;;;;;0.00;0.00;;;;;;;;;;5094604;28;20114;-94
2021/10/31 05:51:39;;;;;;;0.65;0.63;;;;;;;;;;5094842;28;20107;-93
2021/10/31 05:54:04;;;;;;;0.00;0.00;;;;;;;;;;5092737;28;20106;-94
2021/10/31 05:56:30;;;;;;;0.40;0.40;;;;;;;;;;5094291;28;20387;-96
2021/10/31 05:58:55;;;;;;;0.00;0.00;;;;;;;;;;5095155;28;20111;-94
2021/10/31 06:01:20;;;;;;;0.52;0.40;;;;;;;;;;5094853;28;20395;-93
2021/10/31 06:03:46;;;;;;;0.00;0.00;;;;;;;;;;5094418;28;20480;-95
2021/10/31 06:06:11;;;;;;;0.00;0.00;;;;;;;;;;5094278;28;20020;-94
2021/10/31 06:08:36;;;;;;;1.05;1.02;;;;;;;;;;5095445;28;20103;-96
2021/10/31 06:11:02;;;;;;;3.10;2.42;;;;;;;;;;5098294;28;20067;-96
2021/10/31 06:13:27;;;;;;;0.00;0.00;;;;;;;;;;5097357;28;20107;-94
2021/10/31 06:15:52;;;;;;;0.00;0.00;;;;;;;;;;5094894;28;20496;-92
2021/10/31 06:18:18;;;;;;;0.10;0.10;;;;;;;;;;5095218;28;20040;-95
2021/10/31 06:20:44;;;;;;;0.00;0.00;;;;;;;;;;5092265;28;20028;-94
2021/10/31 06:23:09;;;;;;;2.30;1.02;;;;;;;;;;5095573;28;20384;-92
2021/10/31 06:25:35;;;;;;;0.00;0.00;;;;;;;;;;5090794;28;20038;-92
2021/10/31 06:28:00;;;;;;;0.10;0.10;;;;;;;;;;5098400;28;20012;-91
2021/10/31 06:30:25;;;;;;;0.00;0.00;;;;;;;;;;5098200;28;20020;-89
2021/10/31 06:32:51;;;;;;;0.00;0.00;;;;;;;;;;5094791;28;20078;-91
2021/10/31 06:35:17;;;;;;;0.10;0.10;;;;;;;;;;5094806;28;20125;-91
2021/10/31 06:37:43;;;;;;;0.03;0.03;;;;;;;;;;5097786;28;20131;-90
2021/10/31 06:40:08;;;;;;;0.00;0.00;;;;;;;;;;5097785;28;20115;-93
2021/10/31 06:42:34;;;;;;;0.00;0.00;;;;;;;;;;5097874;28;20030;-92
2021/10/31 06:44:59;;;;;;;0.00;0.00;;;;;;;;;;5094993;28;20035;-93
2021/10/31 06:47:24;;;;;;;0.10;0.10;;;;;;;;;;5097373;28;20028;-89
2021/10/31 06:49:49;;;;;;;0.00;0.00;;;;;;;;;;5097723;28;20024;-90
2021/10/31 06:52:15;;;;;;;0.00;0.00;;;;;;;;;;5097673;28;20028;-91
2021/10/31 06:54:40;;;;;;;0.10;0.10;;;;;;;;;;5098256;28;20032;-91
2021/10/31 06:57:06;;;;;;;0.00;0.00;;;;;;;;;;5092793;28;20020;-93
2021/10/31 06:59:34;;;;;;;0.00;0.00;;;;;;;;;;5097681;28;20056;-91
2021/10/31 07:02:00;;;;;;;0.00;0.00;;;;;;;;;;5095579;28;20059;-88
2021/10/31 07:04:26;;;;;;;0.00;0.00;;;;;;;;;;5097477;28;20055;-92
2021/10/31 07:06:51;;;;;;;0.00;0.00;;;;;;;;;;5096998;28;20035;-91
2021/10/31 07:09:17;;;;;;;0.68;0.30;;;;;;;;;;5097138;28;20032;-93
2021/10/31 07:11:42;;;;;;;0.00;0.00;;;;;;;;;;5097124;28;20031;-91
2021/10/31 07:14:08;;;;;;;0.00;0.00;;;;;;;;;;5097783;28;20388;-91
2021/10/31 07:16:33;;;;;;;0.00;0.00;;;;;;;;;;5097693;28;20067;-92
2021/10/31 07:18:58;;;;;;;0.00;0.00;;;;;;;;;;5097055;28;20118;-91
2021/10/31 07:21:24;;;;;;;0.00;0.00;;;;;;;;;;5097404;28;20028;-91
2021/10/31 07:23:49;;;;;;;0.10;0.10;;;;;;;;;;5097599;28;20047;-91
2021/10/31 07:26:14;;;;;;;0.63;0.50;;;;;;;;;;5095473;28;20111;-90
2021/10/31 07:28:40;;;;;;;0.10;0.10;;;;;;;;;;5097630;28;20050;-91
2021/10/31 07:31:06;;;;;;;0.00;0.00;;;;;;;;;;5097443;28;20050;-91
2021/10/31 07:33:32;;;;;;;0.00;0.00;;;;;;;;;;5096916;28;20106;-91
2021/10/31 07:35:57;;;;;;;0.00;0.00;;;;;;;;;;5097046;28;20068;-90
2021/10/31 07:38:22;;;;;;;0.10;0.10;;;;;;;;;;5095395;28;20051;-91
2021/10/31 07:40:47;;;;;;;0.00;0.00;;;;;;;;;;5098245;28;20027;-90
2021/10/31 07:43:13;;;;;;;0.00;0.00;;;;;;;;;;5098216;28;20032;-91
2021/10/31 07:45:39;;;;;;;0.00;0.00;;;;;;;;;;5098932;28;20044;-92
2021/10/31 07:48:05;;;;;;;0.00;0.00;;;;;;;;;;5097757;28;20436;-92
2021/10/31 07:50:34;;;;;;;1.17;0.38;;;;;;;;;;5097017;28;20063;-92
2021/10/31 07:53:03;;;;;;;0.00;0.00;;;;;;;;;;5092056;28;20123;-91
2021/10/31 07:55:33;;;;;;;0.20;0.20;;;;;;;;;;5096568;28;20098;-91
2021/10/31 07:57:59;;;;;;;0.10;0.10;;;;;;;;;;5096270;28;20040;-92
2021/10/31 08:00:26;;;;;;;3.40;1.00;;;;;;;;;;5096496;28;20128;-93
2021/10/31 08:02:52;;;;;;;0.00;0.00;;;;;;;;;;5096959;28;20023;-92
2021/10/31 08:05:17;;;;;;;0.08;0.08;;;;;;;;;;5096287;28;20024;-92
2021/10/31 08:07:42;;;;;;;0.00;0.00;;;;;;;;;;5096829;28;20468;-93
2021/10/31 08:10:08;;;;;;;0.00;0.00;;;;;;;;;;5096272;28;20077;-91
2021/10/31 08:12:34;;;;;;;0.10;0.10;;;;;;;;;;5093228;28;20108;-92
2021/10/31 08:14:59;;;;;;;0.00;0.00;;;;;;;;;;5087283;28;20024;-94
2021/10/31 08:17:26;;;;;;;0.32;0.32;;;;;;;;;;5095902;28;20438;-92
2021/10/31 08:19:51;;;;;;;0.43;0.43;;;;;;;;;;5096228;28;20032;-93
2021/10/31 08:22:16;;;;;;;0.10;0.10;;;;;;;;;;5097345;28;20476;-91
2021/10/31 08:24:41;;;;;;;0.05;0.05;;;;;;;;;;5096416;28;20027;-93
2021/10/31 08:27:07;;;;;;;0.20;0.20;;;;;;;;;;5090185;28;20036;-87
2021/10/31 08:29:33;;;;;;;0.13;0.13;;;;;;;;;;5094837;28;20055;-93
2021/10/31 08:31:58;;;;;;;0.00;0.00;;;;;;;;;;5096540;28;20012;-93
2021/10/31 08:34:25;;;;;;;0.00;0.00;;;;;;;;;;5094157;28;20105;-93
2021/10/31 08:36:50;;;;;;;0.00;0.00;;;;;;;;;;5090606;28;20059;-93
2021/10/31 08:39:15;;;;;;;0.20;0.20;;;;;;;;;;5092103;28;20032;-93
2021/10/31 08:41:40;;;;;;;0.00;0.00;;;;;;;;;;5080998;28;20028;-93
2021/10/31 08:44:06;;;;;;;5.05;0.38;;;;;;;;;;5093078;28;20392;-87
2021/10/31 08:46:32;;;;;;;0.93;0.57;;;;;;;;;;5089593;28;20023;-94
2021/10/31 08:48:57;;;;;;;0.55;0.55;;;;;;;;;;5092867;28;20027;-92
2021/10/31 08:51:24;;;;;;;0.30;0.30;;;;;;;;;;5092134;28;20036;-93
2021/10/31 08:53:50;;;;;;;0.32;0.32;;;;;;;;;;5089910;28;20020;-92
2021/10/31 08:56:15;;;;;;;10.60;0.55;;;;;;;;;;5092470;28;20580;-91
2021/10/31 08:58:40;;;;;;;0.10;0.10;;;;;;;;;;5084635;28;20040;-91
2021/10/31 09:01:06;;;;;;;0.75;0.75;;;;;;;;;;5085724;28;20047;-91
2021/10/31 09:03:31;;;;;;;0.00;0.00;;;;;;;;;;5091889;28;20032;-89
2021/10/31 09:05:56;;;;;;;0.08;0.08;;;;;;;;;;5091745;28;20349;-91
2021/10/31 09:08:22;;;;;;;0.25;0.22;;;;;;;;;;5092290;28;20019;-92
2021/10/31 09:10:47;;;;;;;7.47;1.13;;;;;;;;;;5092397;28;20535;-92
2021/10/31 09:13:12;;;;;;;0.00;0.00;;;;;;;;;;5088277;28;20040;-92
2021/10/31 09:15:38;;;;;;;0.20;0.20;;;;;;;;;;5092125;28;20021;-92
2021/10/31 09:18:05;;;;;;;0.10;0.10;;;;;;;;;;5091859;28;20035;-94
2021/10/31 09:20:30;;;;;;;0.10;0.10;;;;;;;;;;5091242;28;20114;-93
2021/10/31 09:22:59;;;;;;;0.00;0.00;;;;;;;;;;5091514;28;20027;-94
2021/10/31 09:25:25;;;;;;;0.43;0.43;;;;;;;;;;5091467;28;20059;-92
2021/10/31 09:27:50;;;;;;;0.00;0.00;;;;;;;;;;5088414;28;20502;-93
2021/10/31 09:30:16;;;;;;;0.22;0.22;;;;;;;;;;5090027;28;20063;-93
2021/10/31 09:32:43;;;;;;;0.10;0.10;;;;;;;;;;5074482;28;20146;-92
2021/10/31 09:35:09;;;;;;;0.08;0.08;;;;;;;;;;5070635;28;20044;-90
2021/10/31 09:37:34;;;;;;;0.10;0.10;;;;;;;;;;5071269;28;20036;-91
2021/10/31 09:40:02;;;;;;;0.00;0.00;;;;;;;;;;5071856;28;20032;-92
2021/10/31 09:42:27;;;;;;;0.20;0.20;;;;;;;;;;5071335;28;20047;-94
2021/10/31 09:44:52;;;;;;;0.00;0.00;;;;;;;;;;5071574;28;20017;-90
2021/10/31 09:47:21;;;;;;;0.00;0.00;;;;;;;;;;5071627;28;20472;-90
2021/10/31 09:49:47;;;;;;;0.00;0.00;;;;;;;;;;5071076;28;20507;-93
2021/10/31 09:52:12;;;;;;;0.70;0.65;;;;;;;;;;5068820;28;20029;-91
2021/10/31 09:54:37;;;;;;;0.43;0.43;;;;;;;;;;5071728;28;20024;-92
2021/10/31 09:57:03;;;;;;;0.95;0.75;;;;;;;;;;5071188;28;20215;-92
2021/10/31 09:59:29;;;;;;;0.00;0.00;;;;;;;;;;5071002;28;20024;-93
2021/10/31 10:02:11;;;;;;;2.08;1.27;;;;;;;;;;5069622;28;20032;-92
2021/10/31 10:04:50;;;;;;;0.10;0.10;;;;;;;;;;5070607;28;20063;-93
2021/10/31 10:07:16;;;;;;;0.43;0.43;;;;;;;;;;5072024;28;20025;-91
2021/10/31 10:09:49;;;;;;;1.55;1.45;;;;;;;;;;5071969;28;20029;-93
2021/10/31 10:12:15;;;;;;;0.00;0.00;;;;;;;;;;5070744;28;20089;-92
2021/10/31 10:14:41;;;;;;;1.27;1.17;;;;;;;;;;5070708;28;20016;-90
2021/10/31 10:17:10;;;;;;;0.52;0.52;;;;;;;;;;5070552;28;20109;-93
2021/10/31 10:19:41;;;;;;;0.35;0.35;;;;;;;;;;5070215;28;20169;-93
2021/10/31 10:22:09;;;;;;;1.15;0.32;;;;;;;;;;5070608;28;20017;-91
2021/10/31 10:24:36;;;;;;;0.10;0.10;;;;;;;;;;5070583;28;20029;-93
2021/10/31 10:27:03;;;;;;;0.20;0.20;;;;;;;;;;5069815;28;20027;-91
2021/10/31 10:29:30;;;;;;;2.10;1.35;;;;;;;;;;5070391;28;20469;-91
2021/10/31 10:31:57;;;;;;;0.10;0.10;;;;;;;;;;5080386;28;20036;-91
2021/10/31 10:34:30;;;;;;;0.20;0.20;;;;;;;;;;5090743;28;20024;-93
2021/10/31 10:36:57;;;;;;;0.08;0.08;;;;;;;;;;5091431;28;20090;-92
2021/10/31 10:39:22;;;;;;;0.00;0.00;;;;;;;;;;5090619;28;20036;-93
2021/10/31 10:41:48;;;;;;;0.43;0.43;;;;;;;;;;5090857;28;20059;-92
2021/10/31 10:44:16;;;;;;;0.85;0.65;;;;;;;;;;5089595;28;20028;-91
2021/10/31 10:46:42;;;;;;;0.00;0.00;;;;;;;;;;5090341;28;20028;-92
2021/10/31 10:49:08;;;;;;;0.00;0.00;;;;;;;;;;5090583;28;20019;-92
2021/10/31 10:51:33;;;;;;;0.52;0.52;;;;;;;;;;5091054;28;20059;-91
2021/10/31 10:54:17;;;;;;;0.98;0.93;;;;;;;;;;5090240;28;20089;-93
2021/10/31 10:57:03;;;;;;;0.40;0.40;;;;;;;;;;5090383;28;20036;-92
2021/10/31 10:59:28;;;;;;;1.33;1.23;;;;;;;;;;5090309;28;20040;-93
2021/10/31 11:02:07;;;;;;;0.10;0.10;;;;;;;;;;5089547;28;20077;-91
2021/10/31 11:04:34;;;;;;;0.40;0.40;;;;;;;;;;5089408;28;20132;-93
2021/10/31 11:06:59;;;;;;;2.25;0.75;;;;;;;;;;5090728;28;20023;-92
2021/10/31 11:09:24;;;;;;;0.40;0.40;;;;;;;;;;5089964;28;20032;-92
2021/10/31 11:11:50;;;;;;;2.35;0.73;;;;;;;;;;5090355;28;20028;-93
2021/10/31 11:14:15;;;;;;;0.30;0.30;;;;;;;;;;5089649;28;20020;-91
2021/10/31 11:16:40;;;;;;;0.43;0.43;;;;;;;;;;5093281;28;20092;-92
2021/10/31 11:19:06;;;;;;;0.28;0.28;;;;;;;;;;5093451;28;20050;-93
2021/10/31 11:21:31;;;;;;;0.00;0.00;;;;;;;;;;5093969;28;20042;-92
2021/10/31 11:23:58;;;;;;;0.00;0.00;;;;;;;;;;5091666;28;20032;-92
2021/10/31 11:26:27;;;;;;;0.40;0.40;;;;;;;;;;5093849;28;20036;-87
2021/10/31 11:28:53;;;;;;;0.47;0.47;;;;;;;;;;5094392;28;20024;-93
2021/10/31 11:31:20;;;;;;;0.00;0.00;;;;;;;;;;5094470;28;20034;-91
2021/10/31 11:33:46;;;;;;;0.05;0.05;;;;;;;;;;5093706;28;20044;-92
2021/10/31 11:36:11;;;;;;;0.10;0.10;;;;;;;;;;5093711;28;20052;-90
2021/10/31 11:38:38;;;;;;;0.00;0.00;;;;;;;;;;5093062;28;20127;-93
2021/10/31 11:41:09;;;;;;;0.50;0.50;;;;;;;;;;5094113;28;20051;-91
2021/10/31 11:43:35;;;;;;;1.25;0.70;;;;;;;;;;5093578;28;20074;-91
2021/10/31 11:46:00;;;;;;;0.03;0.03;;;;;;;;;;5092151;28;20040;-91
2021/10/31 11:48:27;;;;;;;0.00;0.00;;;;;;;;;;5093035;28;20118;-90
2021/10/31 11:50:58;;;;;;;2.80;1.60;;;;;;;;;;5092323;28;20018;-92
2021/10/31 11:53:23;;;;;;;0.20;0.20;;;;;;;;;;5093311;28;20039;-92
2021/10/31 11:55:51;;;;;;;0.00;0.00;;;;;;;;;;5093096;28;20392;-93
2021/10/31 11:58:30;;;;;;;0.20;0.20;;;;;;;;;;5091621;28;20039;-94
2021/10/31 12:00:59;;;;;;;0.10;0.10;;;;;;;;;;5090630;28;20035;-94
2021/10/31 12:03:46;;;;;;;0.00;0.00;;;;;;;;;;5092978;28;20028;-93
2021/10/31 12:06:14;;;;;;;0.20;0.20;;;;;;;;;;5093512;28;20093;-86
2021/10/31 12:08:58;;;;;;;0.47;0.45;;;;;;;;;;5093765;28;20467;-93
2021/10/31 12:11:30;;;;;;;1.35;1.25;;;;;;;;;;5088642;28;20031;-94
2021/10/31 12:13:56;;;;;;;0.08;0.08;;;;;;;;;;5075387;28;20078;-93
2021/10/31 12:16:22;;;;;;;0.00;0.00;;;;;;;;;;5074814;28;20082;-92
2021/10/31 12:18:56;;;;;;;0.05;0.05;;;;;;;;;;5088238;28;20043;-87
2021/10/31 12:21:23;;;;;;;0.00;0.00;;;;;;;;;;5093258;28;20086;-93
2021/10/31 12:23:51;;;;;;;0.10;0.10;;;;;;;;;;5093034;28;20123;-92
2021/10/31 12:26:17;;;;;;;0.13;0.13;;;;;;;;;;5092407;28;20381;-90
2021/10/31 12:28:43;;;;;;;0.08;0.08;;;;;;;;;;5093630;28;20023;-92
2021/10/31 12:31:20;;;;;;;1.70;1.17;;;;;;;;;;5092769;28;20028;-92
2021/10/31 12:34:04;;;;;;;0.13;0.13;;;;;;;;;;5092400;28;20047;-93
2021/10/31 12:36:33;;;;;;;0.32;0.32;;;;;;;;;;5092188;28;20079;-93
2021/10/31 12:38:58;;;;;;;0.00;0.00;;;;;;;;;;5078942;28;20036;-93
2021/10/31 12:41:25;;;;;;;0.00;0.00;;;;;;;;;;5078709;28;20528;-91
2021/10/31 12:43:57;;;;;;;1.00;0.32;;;;;;;;;;5072667;28;20032;-93
2021/10/31 12:46:27;;;;;;;0.13;0.13;;;;;;;;;;5072512;28;20020;-92
2021/10/31 12:48:54;;;;;;;0.10;0.10;;;;;;;;;;5073029;28;20028;-91
2021/10/31 12:51:31;;;;;;;0.10;0.10;;;;;;;;;;5072415;28;20017;-93
2021/10/31 12:54:00;;;;;;;0.10;0.10;;;;;;;;;;5073253;28;20079;-93
2021/10/31 12:56:32;;;;;;;1.83;1.10;;;;;;;;;;5073327;28;20056;-92
2021/10/31 12:59:04;;;;;;;0.00;0.00;;;;;;;;;;5092161;28;20050;-92
2021/10/31 13:01:30;;;;;;;0.40;0.40;;;;;;;;;;5092874;28;20020;-91
2021/10/31 13:04:02;;;;;;;0.00;0.00;;;;;;;;;;5092579;28;20035;-92
2021/10/31 13:06:27;;;;;;;0.13;0.13;;;;;;;;;;5092291;28;20115;-92
2021/10/31 13:08:54;;;;;;;2.72;1.35;;;;;;;;;;5091877;28;20115;-93
2021/10/31 13:11:23;;;;;;;0.00;0.00;;;;;;;;;;5091764;28;20459;-91
2021/10/31 13:13:48;;;;;;;1.40;1.08;;;;;;;;;;5092317;28;20032;-93
2021/10/31 13:16:13;;;;;;;0.43;0.43;;;;;;;;;;5082501;28;20028;-92
2021/10/31 13:18:39;;;;;;;0.10;0.10;;;;;;;;;;5091331;28;20475;-93
2021/10/31 13:21:10;;;;;;;0.65;0.60;;;;;;;;;;5091600;28;20089;-91
2021/10/31 13:23:37;;;;;;;0.35;0.35;;;;;;;;;;5092320;28;20024;-92
2021/10/31 13:26:06;;;;;;;0.65;0.65;;;;;;;;;;5091166;28;20122;-92
2021/10/31 13:28:33;;;;;;;0.13;0.13;;;;;;;;;;5091366;28;20028;-89
2021/10/31 13:31:11;;;;;;;0.00;0.00;;;;;;;;;;5091817;28;20149;-93
2021/10/31 13:33:36;;;;;;;5.93;1.27;;;;;;;;;;5091654;28;20024;-93
2021/10/31 13:36:15;;;;;;;0.45;0.25;;;;;;;;;;5090479;28;20048;-93
2021/10/31 13:38:52;;;;;;;2.05;0.88;;;;;;;;;;5090688;28;20040;-93
2021/10/31 13:41:18;;;;;;;0.17;0.17;;;;;;;;;;5088029;28;20380;-92
2021/10/31 13:43:44;;;;;;;4.57;1.25;;;;;;;;;;5090720;28;20044;-92
2021/10/31 13:46:09;;;;;;;0.00;0.00;;;;;;;;;;5091437;28;20523;-93
2021/10/31 13:48:39;;;;;;;0.10;0.10;;;;;;;;;;5090798;28;20099;-92
2021/10/31 13:51:05;;;;;;;0.00;0.00;;;;;;;;;;5091478;28;20036;-93
2021/10/31 13:53:30;;;;;;;0.00;0.00;;;;;;;;;;5091887;28;20511;-93
2021/10/31 13:55:56;;;;;;;3.10;1.08;;;;;;;;;;5091330;28;20483;-94
2021/10/31 13:58:22;;;;;;;0.05;0.05;;;;;;;;;;5091780;28;20040;-95
2021/10/31 14:00:47;;;;;;;0.20;0.20;;;;;;;;;;5090825;28;20520;-93
2021/10/31 14:03:17;;;;;;;0.30;0.30;;;;;;;;;;5091379;28;20031;-94
2021/10/31 14:05:44;;;;;;;0.00;0.00;;;;;;;;;;5090434;28;20040;-92
2021/10/31 14:08:09;;;;;;;20.17;1.17;;;;;;;;;;5091084;28;20028;-88
2021/10/31 14:10:39;;;;;;;0.00;0.00;;;;;;;;;;5091633;28;20501;-94
2021/10/31 14:13:09;;;;;;;11.70;1.17;;;;;;;;;;5091500;28;20032;-94
2021/10/31 14:15:35;;;;;;;0.45;0.45;;;;;;;;;;5091332;28;20031;-94
2021/10/31 14:18:04;;;;;;;0.05;0.05;;;;;;;;;;5091307;28;20039;-92
2021/10/31 14:20:31;;;;;;;0.17;0.17;;;;;;;;;;5080480;28;20032;-93
2021/10/31 14:22:56;;;;;;;0.10;0.10;;;;;;;;;;5070824;28;20448;-94
2021/10/31 14:25:27;;;;;;;0.00;0.00;;;;;;;;;;5070858;28;20023;-93
2021/10/31 14:28:06;;;;;;;0.25;0.25;;;;;;;;;;5069769;28;20025;-95
2021/10/31 14:30:32;;;;;;;0.00;0.00;;;;;;;;;;5069370;28;20024;-94
2021/10/31 14:33:05;;;;;;;7.15;1.00;;;;;;;;;;5085377;28;20119;-93
2021/10/31 14:35:38;;;;;;;1.55;0.75;;;;;;;;;;5078599;28;20048;-93
2021/10/31 14:38:03;;;;;;;0.05;0.05;;;;;;;;;;5070447;28;20053;-94
2021/10/31 14:40:28;;;;;;;0.47;0.47;;;;;;;;;;5068933;28;20036;-92
2021/10/31 14:43:12;;;;;;;2.00;1.13;;;;;;;;;;5070336;28;20430;-92